Time;durP1;ratioP1;P1;durP2;ratioP2;P2;SDS_P1;SDS_P2;PMS_P1;PMS_P2;Temp;Humidity;BMP_temperature;BMP_pressure;BME280_temperature;BME280_humidity;BME280_pressure;Samples;Min_cycle;Max_cycle;Signal;HPM_P1;HPM_P2
2021/04/01 00:00:16;;;;;;;20.60;14.97;;;13.10;99.90;;;;;;5073187;28;21000;-71
2021/04/01 00:02:46;;;;;;;20.77;12.57;;;13.20;99.90;;;;;;5073378;28;20464;-70
2021/04/01 00:05:14;;;;;;;14.63;10.73;;;13.20;99.90;;;;;;5071952;28;20385;-71
2021/04/01 00:07:41;;;;;;;16.73;11.57;;;13.50;1.00;;;;;;5072967;28;20470;-71
2021/04/01 00:10:12;;;;;;;19.53;12.60;;;13.50;1.00;;;;;;5055143;28;20783;-71
2021/04/01 00:12:40;;;;;;;16.80;11.07;;;13.40;99.90;;;;;;5073209;28;20450;-71
2021/04/01 00:15:09;;;;;;;21.77;13.60;;;13.40;1.00;;;;;;5074839;28;20373;-72
2021/04/01 00:17:37;;;;;;;13.90;9.67;;;13.30;99.90;;;;;;5073766;28;20499;-70
2021/04/01 00:20:05;;;;;;;17.37;11.67;;;13.50;99.90;;;;;;5056831;28;20429;-70
2021/04/01 00:22:33;;;;;;;14.80;9.90;;;13.40;99.90;;;;;;5055334;28;20393;-70
2021/04/01 00:25:00;;;;;;;24.97;11.47;;;13.30;1.00;;;;;;5072404;28;20517;-72
2021/04/01 00:27:28;;;;;;;12.50;9.10;;;13.20;99.90;;;;;;5072688;28;20438;-70
2021/04/01 00:29:55;;;;;;;14.93;11.50;;;13.20;1.00;;;;;;5072351;28;20476;-70
2021/04/01 00:32:22;;;;;;;20.53;10.60;;;13.10;1.00;;;;;;5072306;28;20427;-70
2021/04/01 00:34:49;;;;;;;19.37;11.00;;;13.20;1.00;;;;;;5072598;28;20713;-70
2021/04/01 00:37:16;;;;;;;16.17;10.33;;;13.20;1.00;;;;;;5072466;28;20476;-71
2021/04/01 00:39:43;;;;;;;13.17;9.20;;;13.10;99.90;;;;;;5072398;28;20914;-71
2021/04/01 00:42:10;;;;;;;14.53;10.60;;;13.20;99.90;;;;;;5072216;28;20806;-72
2021/04/01 00:44:38;;;;;;;13.20;11.00;;;13.10;99.90;;;;;;5054670;28;20962;-71
2021/04/01 00:47:06;;;;;;;15.37;11.37;;;13.30;1.00;;;;;;5072220;28;20445;-71
2021/04/01 00:49:34;;;;;;;21.03;12.17;;;13.30;99.90;;;;;;5072117;28;20468;-70
2021/04/01 00:52:01;;;;;;;19.30;11.83;;;13.20;99.90;;;;;;5072079;28;20465;-71
2021/04/01 00:54:28;;;;;;;18.50;11.27;;;13.30;99.90;;;;;;5071909;28;20415;-71
2021/04/01 00:56:56;;;;;;;21.10;10.50;;;13.40;99.90;;;;;;5072416;28;20442;-73
2021/04/01 00:59:23;;;;;;;14.63;9.80;;;13.40;1.00;;;;;;5072363;28;20899;-71
2021/04/01 01:01:51;;;;;;;13.37;9.40;;;13.30;1.00;;;;;;5072411;28;20415;-70
2021/04/01 01:04:19;;;;;;;13.93;9.47;;;13.20;1.00;;;;;;5071958;28;20674;-71
2021/04/01 01:06:46;;;;;;;14.83;9.10;;;12.90;1.00;;;;;;5073439;28;20420;-71
2021/04/01 01:09:13;;;;;;;14.17;9.03;;;12.80;1.00;;;;;;5073776;28;20432;-72
2021/04/01 01:11:41;;;;;;;13.60;9.60;;;12.70;1.00;;;;;;5074325;28;20451;-72
2021/04/01 01:14:09;;;;;;;11.13;7.17;;;12.70;99.90;;;;;;5074416;28;20414;-71
2021/04/01 01:16:36;;;;;;;13.27;8.00;;;12.70;1.00;;;;;;5073346;28;20499;-70
2021/04/01 01:19:05;;;;;;;15.03;8.70;;;12.80;69.20;;;;;;5072456;28;20447;-71
2021/04/01 01:21:32;;;;;;;12.20;8.73;;;12.70;1.00;;;;;;5073438;28;20407;-73
2021/04/01 01:24:02;;;;;;;12.63;8.20;;;12.70;2.80;;;;;;5074307;28;20820;-71
2021/04/01 01:26:30;;;;;;;12.57;7.63;;;12.80;99.90;;;;;;5074278;28;20446;-72
2021/04/01 01:28:58;;;;;;;10.13;7.17;;;12.80;99.90;;;;;;5074539;28;20512;-72
2021/04/01 01:31:25;;;;;;;9.83;7.20;;;12.80;99.90;;;;;;5056345;28;20517;-72
2021/04/01 01:33:56;;;;;;;16.27;7.73;;;12.90;99.90;;;;;;5074974;28;20434;-71
2021/04/01 01:36:23;;;;;;;10.90;8.37;;;12.90;1.00;;;;;;5075313;28;20435;-71
2021/04/01 01:38:50;;;;;;;11.23;7.27;;;12.90;1.00;;;;;;5069741;28;20475;-72
2021/04/01 01:41:17;;;;;;;11.20;7.47;;;13.00;99.90;;;;;;5051668;28;20433;-71
2021/04/01 01:43:45;;;;;;;7.60;6.80;;;12.90;1.00;;;;;;5054965;28;20431;-71
2021/04/01 01:46:12;;;;;;;10.30;7.77;;;12.80;1.00;;;;;;5053701;28;20455;-71
2021/04/01 01:48:39;;;;;;;10.40;7.73;;;12.70;99.90;;;;;;5051733;28;20432;-73
2021/04/01 01:51:06;;;;;;;8.30;6.10;;;12.60;1.00;;;;;;5034050;28;20953;-73
2021/04/01 01:53:34;;;;;;;12.60;7.87;;;12.70;99.90;;;;;;5043635;28;20470;-70
2021/04/01 01:56:01;;;;;;;12.10;8.90;;;12.80;99.90;;;;;;5052551;28;20427;-70
2021/04/01 01:58:28;;;;;;;13.37;7.10;;;13.00;99.90;;;;;;5051128;28;20962;-70
2021/04/01 02:00:57;;;;;;;11.07;7.53;;;12.80;99.90;;;;;;5051485;28;21021;-70
2021/04/01 02:03:25;;;;;;;12.13;7.43;;;12.70;99.90;;;;;;5051414;28;20496;-70
2021/04/01 02:05:52;;;;;;;12.43;7.17;;;12.90;99.90;;;;;;5051738;28;20390;-71
2021/04/01 02:08:20;;;;;;;13.80;7.13;;;12.90;99.90;;;;;;5051329;28;20458;-71
2021/04/01 02:10:50;;;;;;;8.57;6.60;;;13.00;1.00;;;;;;5051457;28;20465;-70
2021/04/01 02:13:19;;;;;;;10.57;7.30;;;13.10;99.90;;;;;;5051054;28;20466;-69
2021/04/01 02:15:48;;;;;;;9.80;6.70;;;13.40;41.60;;;;;;5051409;28;20570;-70
2021/04/01 02:18:17;;;;;;;12.07;7.60;;;13.50;1.00;;;;;;5050961;28;20840;-72
2021/04/01 02:20:47;;;;;;;9.10;6.53;;;13.50;1.00;;;;;;5050571;28;20415;-70
2021/04/01 02:23:15;;;;;;;14.33;7.60;;;13.50;1.00;;;;;;5050523;28;20425;-71
2021/04/01 02:25:44;;;;;;;10.57;7.17;;;13.40;1.00;;;;;;5052170;28;20443;-75
2021/04/01 02:28:12;;;;;;;11.90;7.87;;;13.30;34.90;;;;;;5052825;28;20464;-71
2021/04/01 02:30:41;;;;;;;12.50;7.03;;;13.40;1.00;;;;;;5053078;28;20815;-69
2021/04/01 02:33:09;;;;;;;11.77;7.70;;;13.40;1.00;;;;;;5050909;28;20462;-70
2021/04/01 02:35:38;;;;;;;10.90;6.87;;;13.40;1.00;;;;;;5048904;28;21071;-71
2021/04/01 02:38:06;;;;;;;13.23;8.30;;;13.70;1.00;;;;;;5050812;28;20422;-70
2021/04/01 02:40:35;;;;;;;13.27;8.07;;;13.80;1.00;;;;;;5050819;28;20440;-71
2021/04/01 02:43:02;;;;;;;9.53;6.77;;;13.80;25.80;;;;;;5050840;28;20943;-72
2021/04/01 02:45:30;;;;;;;10.00;7.50;;;13.70;1.00;;;;;;5051097;28;20431;-74
2021/04/01 02:47:57;;;;;;;11.70;8.30;;;13.80;1.00;;;;;;5050656;28;20983;-70
2021/04/01 02:50:25;;;;;;;9.50;6.83;;;13.60;1.00;;;;;;5049801;28;20398;-70
2021/04/01 02:52:53;;;;;;;13.00;7.50;;;13.60;13.10;;;;;;5050954;28;20442;-69
2021/04/01 02:55:21;;;;;;;11.03;7.73;;;13.50;1.00;;;;;;5050750;28;20419;-71
2021/04/01 02:57:48;;;;;;;10.90;8.07;;;13.30;1.00;;;;;;5049536;28;20963;-70
2021/04/01 03:00:19;;;;;;;13.63;8.00;;;13.20;44.60;;;;;;5051584;28;20430;-70
2021/04/01 03:02:48;;;;;;;13.77;7.10;;;13.40;1.00;;;;;;5055234;28;20443;-70
2021/04/01 03:05:15;;;;;;;8.83;7.37;;;13.60;1.00;;;;;;5056028;28;20450;-70
2021/04/01 03:07:42;;;;;;;10.43;6.97;;;13.80;1.00;;;;;;5053598;28;20418;-70
2021/04/01 03:10:12;;;;;;;10.40;7.20;;;13.90;1.00;;;;;;5055192;28;20749;-70
2021/04/01 03:12:40;;;;;;;11.30;7.73;;;13.70;14.90;;;;;;5056382;28;20852;-69
2021/04/01 03:15:09;;;;;;;11.30;8.00;;;13.40;1.00;;;;;;5055930;28;20843;-69
2021/04/01 03:17:38;;;;;;;10.07;7.23;;;13.40;1.00;;;;;;5051483;28;20463;-70
2021/04/01 03:20:07;;;;;;;14.17;7.47;;;13.60;1.00;;;;;;5055173;28;20441;-70
2021/04/01 03:22:35;;;;;;;13.30;8.90;;;13.60;1.00;;;;;;5054533;28;20426;-69
2021/04/01 03:25:02;;;;;;;10.93;6.40;;;13.50;6.60;;;;;;5054514;28;20541;-71
2021/04/01 03:27:30;;;;;;;12.40;6.77;;;13.50;32.70;;;;;;5055412;28;20447;-70
2021/04/01 03:30:04;;;;;;;16.13;8.17;;;13.50;1.00;;;;;;5056059;28;20457;-71
2021/04/01 03:32:32;;;;;;;11.27;7.90;;;13.60;64.90;;;;;;5055958;28;20459;-70
2021/04/01 03:34:59;;;;;;;10.37;7.17;;;13.60;79.30;;;;;;5055132;28;20416;-70
2021/04/01 03:37:27;;;;;;;15.43;7.27;;;13.50;57.10;;;;;;5055154;28;20443;-69
2021/04/01 03:39:54;;;;;;;12.63;8.50;;;13.30;11.30;;;;;;5062230;28;20419;-70
2021/04/01 03:42:22;;;;;;;12.57;7.23;;;13.30;1.00;;;;;;5065131;28;20521;-72
2021/04/01 03:44:51;;;;;;;10.47;7.30;;;13.40;1.00;;;;;;5064567;28;20835;-72
2021/04/01 03:47:18;;;;;;;8.37;7.53;;;13.50;99.90;;;;;;5062951;28;20450;-70
2021/04/01 03:49:45;;;;;;;12.17;8.73;;;13.50;99.90;;;;;;5059527;28;20434;-70
2021/04/01 03:52:13;;;;;;;15.00;7.87;;;13.60;99.90;;;;;;5059242;28;20459;-70
2021/04/01 03:54:41;;;;;;;13.10;8.20;;;13.70;99.90;;;;;;5054542;28;20878;-70
2021/04/01 03:57:08;;;;;;;12.37;7.20;;;13.90;1.00;;;;;;5055650;28;20742;-71
2021/04/01 03:59:42;;;;;;;12.90;5.97;;;13.90;1.00;;;;;;5056668;28;20487;-70
2021/04/01 04:05:02;;;;;;;10.97;7.43;;;14.10;1.00;;;;;;5045341;28;20857;-71
2021/04/01 04:07:48;;;;;;;11.77;7.37;;;14.20;1.00;;;;;;5052919;28;20874;-71
2021/04/01 04:10:36;;;;;;;9.37;7.30;;;14.20;1.00;;;;;;5050851;28;20441;-70
2021/04/01 04:13:13;;;;;;;11.53;7.50;;;14.10;1.00;;;;;;5052653;28;20536;-70
2021/04/01 04:15:41;;;;;;;12.47;9.37;;;14.10;19.50;;;;;;5053104;28;20414;-70
2021/04/01 04:18:09;;;;;;;15.00;8.30;;;14.00;1.00;;;;;;5053050;28;20425;-70
2021/04/01 04:20:37;;;;;;;16.67;8.60;;;14.10;99.90;;;;;;5053765;28;20436;-70
2021/04/01 04:23:04;;;;;;;11.90;8.33;;;14.00;99.90;;;;;;5053981;28;20405;-71
2021/04/01 04:25:33;;;;;;;9.37;6.77;;;14.00;99.90;;;;;;5052456;28;20394;-71
2021/04/01 04:28:08;;;;;;;14.90;8.37;;;14.20;99.90;;;;;;5052437;28;20418;-71
2021/04/01 04:30:36;;;;;;;9.77;8.40;;;14.10;99.90;;;;;;5052422;28;20407;-71
2021/04/01 04:33:03;;;;;;;9.57;7.33;;;14.00;99.90;;;;;;5052321;28;20542;-71
2021/04/01 04:35:31;;;;;;;13.90;8.50;;;14.10;99.90;;;;;;5052373;28;20378;-71
2021/04/01 04:38:00;;;;;;;8.60;7.50;;;14.10;99.90;;;;;;5052221;28;20455;-71
2021/04/01 04:40:27;;;;;;;9.10;6.77;;;14.10;99.90;;;;;;5052397;28;20458;-71
2021/04/01 04:42:54;;;;;;;7.57;6.53;;;14.30;99.90;;;;;;5052172;28;20430;-71
2021/04/01 04:45:22;;;;;;;14.57;8.77;;;14.50;99.90;;;;;;5052161;28;20789;-71
2021/04/01 04:47:49;;;;;;;13.23;8.87;;;14.50;64.40;;;;;;5051712;28;20450;-70
2021/04/01 04:50:16;;;;;;;10.90;6.80;;;14.40;96.10;;;;;;5051616;28;20432;-71
2021/04/01 04:52:44;;;;;;;14.30;10.03;;;14.10;97.80;;;;;;5052188;28;20494;-71
2021/04/01 04:55:12;;;;;;;11.00;7.73;;;14.10;99.90;;;;;;5051781;28;20442;-71
2021/04/01 04:57:52;;;;;;;10.43;8.13;;;14.00;99.90;;;;;;5048406;28;20514;-71
2021/04/01 05:05:56;;;;;;;12.40;7.37;;;14.10;1.00;;;;;;5051739;28;20454;-71
2021/04/01 05:08:24;;;;;;;10.33;6.80;;;14.10;93.90;;;;;;5052325;28;20427;-71
2021/04/01 05:10:51;;;;;;;9.43;7.50;;;13.90;82.90;;;;;;5052354;28;20849;-70
2021/04/01 05:13:19;;;;;;;17.00;8.13;;;13.90;86.00;;;;;;5051902;28;21001;-70
2021/04/01 05:15:48;;;;;;;8.83;7.80;;;14.00;47.80;;;;;;5051970;28;20435;-71
2021/04/01 05:18:28;;;;;;;12.03;7.63;;;14.30;71.80;;;;;;5051653;28;20451;-71
2021/04/01 05:20:57;;;;;;;10.07;7.07;;;14.60;96.20;;;;;;5052330;28;20937;-71
2021/04/01 05:26:25;;;;;;;12.80;8.60;;;14.80;99.90;;;;;;5044697;28;20517;-71
2021/04/01 05:28:54;;;;;;;14.57;8.63;;;14.70;99.90;;;;;;5044368;28;20405;-70
2021/04/01 05:31:29;;;;;;;10.67;7.30;;;14.50;99.90;;;;;;5057429;28;20431;-72
2021/04/01 05:33:57;;;;;;;11.60;7.33;;;14.30;99.90;;;;;;5057113;28;20447;-72
2021/04/01 05:36:26;;;;;;;13.40;8.83;;;14.50;99.90;;;;;;5055620;28;20445;-70
2021/04/01 05:38:56;;;;;;;12.97;8.80;;;14.40;99.90;;;;;;5054723;28;20493;-70
2021/04/01 05:41:25;;;;;;;11.57;7.83;;;14.10;99.90;;;;;;5051491;28;20415;-70
2021/04/01 05:44:00;;;;;;;8.57;7.13;;;14.30;99.90;;;;;;5051055;28;20431;-71
2021/04/01 05:46:31;;;;;;;9.80;6.80;;;14.40;99.90;;;;;;5051059;28;20462;-71
2021/04/01 05:49:09;;;;;;;12.03;8.00;;;14.70;99.90;;;;;;5051452;28;20435;-70
2021/04/01 05:52:03;;;;;;;14.40;7.80;;;14.80;99.90;;;;;;5051724;28;20408;-72
2021/04/01 05:57:50;;;;;;;17.60;9.47;;;14.40;99.90;;;;;;5053392;22;20478;-71
2021/04/01 06:03:17;;;;;;;13.03;8.93;;;13.90;99.90;;;;;;5037119;28;20412;-69
2021/04/01 06:05:47;;;;;;;18.93;16.90;;;13.60;99.90;;;;;;5070935;28;20501;-71
2021/04/01 06:08:17;;;;;;;107.47;96.03;;;13.20;99.90;;;;;;5061418;28;20484;-70
2021/04/01 06:10:46;;;;;;;13.20;11.30;;;13.10;99.90;;;;;;5049105;28;20489;-70
2021/04/01 06:13:15;;;;;;;10.03;8.80;;;13.30;1.00;;;;;;5039649;28;20456;-69
2021/04/01 06:15:47;;;;;;;15.70;8.67;;;13.60;99.90;;;;;;5033669;28;20829;-69
2021/04/01 06:18:15;;;;;;;9.63;8.40;;;13.80;99.90;;;;;;5042508;28;20500;-70
2021/04/01 06:20:46;;;;;;;10.07;7.43;;;14.10;1.00;;;;;;5035230;28;20430;-70
2021/04/01 06:23:26;;;;;;;10.00;7.70;;;14.20;99.90;;;;;;5044705;28;20398;-69
2021/04/01 06:25:57;;;;;;;18.30;9.13;;;14.20;99.90;;;;;;5032835;28;20449;-69
2021/04/01 06:28:32;;;;;;;12.83;8.60;;;14.40;1.00;;;;;;5031089;28;20417;-69
2021/04/01 06:31:01;;;;;;;10.13;7.90;;;14.30;99.90;;;;;;5013342;28;20427;-69
2021/04/01 06:33:28;;;;;;;11.93;7.77;;;14.20;99.90;;;;;;5031035;28;20482;-70
2021/04/01 06:36:02;;;;;;;13.33;7.93;;;14.30;1.00;;;;;;5013117;28;20432;-72
2021/04/01 06:38:36;;;;;;;13.70;8.00;;;14.40;1.00;;;;;;5030772;28;20463;-70
2021/04/01 06:41:09;;;;;;;11.90;7.97;;;14.60;99.90;;;;;;5049339;28;20447;-71
2021/04/01 06:43:48;;;;;;;14.20;7.70;;;14.70;1.00;;;;;;5050454;28;20413;-70
2021/04/01 06:46:17;;;;;;;14.73;8.97;;;14.70;1.00;;;;;;5050288;28;20439;-72
2021/04/01 06:49:09;;;;;;;12.07;8.80;;;14.40;99.90;;;;;;5050389;28;20399;-72
2021/04/01 06:51:49;;;;;;;12.50;8.73;;;14.20;1.00;;;;;;5050396;28;20416;-69
2021/04/01 06:54:25;;;;;;;10.80;8.10;;;14.40;99.90;;;;;;5050330;28;20473;-70
2021/04/01 06:57:31;;;;;;;14.13;8.60;;;14.70;97.30;;;;;;5050612;28;20439;-69
2021/04/01 07:00:31;;;;;;;9.70;8.60;;;14.90;99.90;;;;;;5033263;28;20442;-70
2021/04/01 07:03:12;;;;;;;19.13;8.73;;;15.00;1.00;;;;;;5050424;28;20748;-70
2021/04/01 07:05:54;;;;;;;14.60;9.53;;;15.20;1.00;;;;;;5050264;28;20424;-71
2021/04/01 07:08:35;;;;;;;10.70;7.57;;;15.20;1.00;;;;;;5049877;28;20422;-71
2021/04/01 07:11:05;;;;;;;13.03;9.80;;;15.10;99.90;;;;;;5050130;28;20754;-70
2021/04/01 07:13:41;;;;;;;14.93;8.20;;;15.00;1.00;;;;;;5033465;28;20477;-70
2021/04/01 07:16:19;;;;;;;11.67;8.90;;;14.90;1.00;;;;;;5053540;28;20787;-70
2021/04/01 07:19:20;;;;;;;11.17;8.50;;;15.00;99.90;;;;;;5053337;28;20457;-69
2021/04/01 07:35:56;;;;;;;10.73;9.03;;;14.70;1.00;;;;;;5052614;28;20427;-70
2021/04/01 07:47:04;;;;;;;13.83;8.33;;;15.30;1.00;;;;;;5053127;28;20790;-70
2021/04/01 07:49:35;;;;;;;12.83;9.60;;;15.60;1.00;;;;;;5053996;28;20805;-69
2021/04/01 07:52:07;;;;;;;22.70;10.50;;;15.90;1.00;;;;;;5036285;28;20425;-70
2021/04/01 07:54:45;;;;;;;13.67;8.83;;;16.10;85.50;;;;;;5054107;28;20517;-70
2021/04/01 08:00:10;;;;;;;12.23;8.70;;;16.40;99.90;;;;;;5032300;28;20513;-69
2021/04/01 08:02:51;;;;;;;19.73;11.67;;;16.40;99.90;;;;;;5053449;28;20401;-70
2021/04/01 08:05:27;;;;;;;14.13;10.07;;;16.60;99.90;;;;;;5059106;28;20406;-69
2021/04/01 08:07:57;;;;;;;12.50;9.90;;;16.80;99.90;;;;;;5070501;28;20418;-70
2021/04/01 08:10:29;;;;;;;15.77;9.90;;;16.90;99.90;;;;;;5068982;28;20510;-69
2021/04/01 08:13:02;;;;;;;12.87;9.47;;;17.00;99.90;;;;;;5066822;28;20426;-70
2021/04/01 08:15:36;;;;;;;18.27;10.67;;;17.00;99.90;;;;;;5072112;28;20423;-68
2021/04/01 08:18:13;;;;;;;13.47;10.20;;;16.90;99.90;;;;;;5054477;28;20430;-71
2021/04/01 08:20:43;;;;;;;19.27;11.70;;;17.00;99.90;;;;;;5040129;28;20398;-69
2021/04/01 08:23:28;;;;;;;17.43;10.50;;;16.80;99.90;;;;;;5053926;28;20701;-70
2021/04/01 08:26:23;;;;;;;21.53;12.43;;;16.50;99.90;;;;;;5052648;28;20439;-69
2021/04/01 08:32:47;;;;;;;15.17;10.97;;;16.60;99.90;;;;;;5030635;28;20812;-70
2021/04/01 08:35:36;;;;;;;25.30;12.53;;;16.70;99.90;;;;;;5070862;28;20926;-68
2021/04/01 08:38:24;;;;;;;17.83;11.70;;;16.80;99.90;;;;;;5072555;28;20454;-70
2021/04/01 08:41:29;;;;;;;14.80;10.50;;;16.80;99.90;;;;;;5055038;28;20542;-70
2021/04/01 08:44:41;;;;;;;20.20;13.03;;;16.80;99.90;;;;;;5072092;28;20423;-69
2021/04/01 08:47:35;;;;;;;17.73;11.83;;;16.50;99.90;;;;;;5037241;28;20545;-70
2021/04/01 08:50:19;;;;;;;19.67;12.23;;;16.50;99.90;;;;;;5072256;28;20574;-70
2021/04/01 08:53:38;;;;;;;20.80;11.60;;;16.30;99.90;;;;;;5032411;28;20783;-70
2021/04/01 08:56:19;;;;;;;21.97;11.60;;;16.10;99.90;;;;;;4951911;29;21063;-69
2021/04/01 08:59:00;;;;;;;21.30;12.83;;;16.10;99.90;;;;;;4951790;29;20513;-69
2021/04/01 09:01:31;;;;;;;21.60;12.70;;;16.00;99.90;;;;;;5008512;28;20512;-71
2021/04/01 09:04:00;;;;;;;18.43;11.50;;;16.00;99.90;;;;;;5032316;28;20800;-71
2021/04/01 09:06:34;;;;;;;22.60;13.40;;;16.10;99.90;;;;;;5014723;28;20970;-69
2021/04/01 09:09:09;;;;;;;21.77;14.07;;;16.40;99.90;;;;;;5032003;28;20448;-69
2021/04/01 09:11:48;;;;;;;24.23;13.90;;;16.50;99.90;;;;;;5032463;28;20803;-70
2021/04/01 09:14:24;;;;;;;23.90;13.87;;;16.70;99.90;;;;;;5031972;28;20492;-69
2021/04/01 09:17:07;;;;;;;27.70;14.80;;;16.80;99.90;;;;;;5032160;28;20943;-70
2021/04/01 09:19:37;;;;;;;19.07;12.67;;;16.90;99.90;;;;;;5014363;28;20426;-70
2021/04/01 09:22:15;;;;;;;23.73;12.50;;;17.10;99.90;;;;;;5032159;28;20964;-71
2021/04/01 09:24:44;;;;;;;32.20;16.93;;;17.20;99.90;;;;;;5033092;28;20390;-70
2021/04/01 09:27:12;;;;;;;18.57;13.50;;;17.50;99.90;;;;;;5050370;28;20441;-72
2021/04/01 09:29:41;;;;;;;23.40;14.57;;;17.50;99.90;;;;;;5051226;28;20438;-69
2021/04/01 09:32:11;;;;;;;21.10;13.03;;;17.40;99.90;;;;;;5050818;28;20510;-70
2021/04/01 09:34:40;;;;;;;24.77;14.90;;;17.20;99.90;;;;;;5061627;28;20823;-71
2021/04/01 09:37:13;;;;;;;22.43;12.93;;;17.10;99.90;;;;;;5063079;28;20630;-70
2021/04/01 09:39:41;;;;;;;20.47;13.47;;;17.10;99.90;;;;;;5051255;28;20402;-70
2021/04/01 09:42:11;;;;;;;24.73;15.63;;;17.30;99.90;;;;;;5051263;28;20421;-70
2021/04/01 09:44:51;;;;;;;23.33;14.57;;;17.80;99.90;;;;;;5051033;28;20436;-70
2021/04/01 09:47:27;;;;;;;21.43;13.00;;;18.00;99.90;;;;;;5033445;28;20516;-69
2021/04/01 09:50:02;;;;;;;28.60;14.93;;;18.00;99.90;;;;;;5051260;28;20398;-68
2021/04/01 09:52:30;;;;;;;26.10;13.97;;;18.10;99.90;;;;;;5051574;28;20753;-69
2021/04/01 09:55:06;;;;;;;27.73;16.83;;;18.10;99.90;;;;;;5053619;28;20416;-68
2021/04/01 09:57:45;;;;;;;28.07;15.47;;;18.10;99.90;;;;;;5056281;28;20472;-69
2021/04/01 10:00:18;;;;;;;22.00;14.43;;;18.20;99.90;;;;;;5050546;28;20422;-70
2021/04/01 10:02:57;;;;;;;21.77;13.57;;;18.20;99.90;;;;;;5050073;28;20411;-70
2021/04/01 10:05:25;;;;;;;23.20;15.10;;;18.10;99.90;;;;;;5050337;28;20417;-70
2021/04/01 10:07:57;;;;;;;32.13;17.03;;;18.20;99.90;;;;;;5050329;28;20487;-70
2021/04/01 10:10:37;;;;;;;28.97;15.20;;;18.20;99.90;;;;;;5050314;28;20387;-69
2021/04/01 10:13:24;;;;;;;28.10;15.63;;;18.20;99.90;;;;;;5049785;28;20453;-70
2021/04/01 10:15:54;;;;;;;25.73;16.27;;;18.20;99.90;;;;;;5049903;28;20396;-72
2021/04/01 10:18:36;;;;;;;25.17;15.37;;;18.10;99.90;;;;;;5050069;28;20493;-72
2021/04/01 10:21:10;;;;;;;25.03;15.90;;;18.20;99.90;;;;;;5050270;28;20545;-71
2021/04/01 10:23:45;;;;;;;26.17;12.83;;;18.10;99.90;;;;;;5049907;28;20902;-72
2021/04/01 10:26:14;;;;;;;26.40;16.17;;;18.10;99.90;;;;;;5049780;28;20530;-71
2021/04/01 10:28:57;;;;;;;26.80;15.07;;;18.20;99.90;;;;;;5049952;28;20411;-69
2021/04/01 10:31:25;;;;;;;24.07;13.20;;;18.30;99.90;;;;;;5050301;28;20423;-70
2021/04/01 10:34:02;;;;;;;22.50;15.40;;;18.20;99.90;;;;;;5053731;28;20464;-70
2021/04/01 10:36:29;;;;;;;28.57;14.67;;;18.10;99.90;;;;;;5070380;28;20491;-69
2021/04/01 10:39:08;;;;;;;25.70;16.63;;;18.10;99.90;;;;;;5070080;28;20393;-72
2021/04/01 10:41:45;;;;;;;25.03;15.27;;;18.00;99.90;;;;;;5070275;28;20897;-71
2021/04/01 10:44:14;;;;;;;27.27;17.20;;;17.90;99.90;;;;;;5034981;28;20412;-70
2021/04/01 10:46:46;;;;;;;31.07;17.00;;;17.70;99.90;;;;;;5050181;28;20418;-67
2021/04/01 10:49:14;;;;;;;29.80;15.37;;;17.50;99.90;;;;;;5034498;28;20394;-68
2021/04/01 10:51:49;;;;;;;33.63;18.73;;;17.50;99.90;;;;;;5054332;28;20506;-70
2021/04/01 10:54:22;;;;;;;27.80;17.27;;;17.50;99.90;;;;;;5053609;28;20451;-70
2021/04/01 10:56:53;;;;;;;34.33;19.30;;;17.50;99.90;;;;;;5054346;28;20446;-68
2021/04/01 10:59:39;;;;;;;28.57;14.53;;;17.30;99.90;;;;;;5053132;28;20441;-71
2021/04/01 11:02:13;;;;;;;30.87;17.37;;;17.00;99.90;;;;;;5053902;28;20389;-72
2021/04/01 11:04:43;;;;;;;28.23;16.03;;;17.00;99.90;;;;;;5053329;28;20393;-70
2021/04/01 11:07:10;;;;;;;29.93;15.27;;;17.10;99.90;;;;;;5054873;28;20818;-68
2021/04/01 11:09:45;;;;;;;29.40;15.97;;;17.40;99.90;;;;;;5053897;28;20392;-67
2021/04/01 11:12:15;;;;;;;23.13;13.63;;;17.70;99.90;;;;;;5053789;28;20381;-71
2021/04/01 11:14:46;;;;;;;31.07;16.83;;;18.20;99.90;;;;;;5053422;28;21031;-70
2021/04/01 11:17:21;;;;;;;25.67;14.90;;;18.50;99.90;;;;;;5053615;28;20445;-70
2021/04/01 11:19:51;;;;;;;28.77;16.23;;;18.90;99.90;;;;;;5044844;28;20445;-69
2021/04/01 11:22:19;;;;;;;26.73;15.47;;;19.30;99.90;;;;;;5042707;28;20417;-70
2021/04/01 11:24:46;;;;;;;32.70;18.27;;;19.50;99.90;;;;;;5045779;28;20414;-68
2021/04/01 11:27:17;;;;;;;27.77;16.43;;;19.80;99.90;;;;;;5052362;28;20433;-70
2021/04/01 11:29:52;;;;;;;29.23;14.47;;;19.60;99.90;;;;;;5050030;28;20528;-69
2021/04/01 11:32:21;;;;;;;25.87;16.50;;;19.70;99.90;;;;;;5034131;28;20555;-69
2021/04/01 11:34:51;;;;;;;29.00;13.63;;;20.00;99.90;;;;;;5052710;28;20474;-70
2021/04/01 11:37:21;;;;;;;22.67;14.00;;;19.80;99.90;;;;;;5053779;28;20459;-70
2021/04/01 11:39:50;;;;;;;24.17;14.43;;;19.40;99.90;;;;;;5053264;28;20414;-71
2021/04/01 11:42:19;;;;;;;28.23;14.90;;;18.90;99.90;;;;;;5052729;28;20443;-68
2021/04/01 11:44:46;;;;;;;28.03;14.67;;;18.90;99.90;;;;;;5042054;28;20494;-71
2021/04/01 11:47:20;;;;;;;27.87;17.03;;;19.00;99.90;;;;;;5053163;28;20444;-69
2021/04/01 11:49:50;;;;;;;31.27;14.83;;;18.80;99.90;;;;;;5015839;28;20527;-70
2021/04/01 11:52:19;;;;;;;23.73;13.97;;;18.70;99.90;;;;;;5034427;28;20420;-68
2021/04/01 11:54:47;;;;;;;28.13;14.47;;;18.80;99.90;;;;;;5052844;28;20474;-70
2021/04/01 11:57:22;;;;;;;32.57;16.97;;;18.80;99.90;;;;;;5068796;22;20444;-75
2021/04/01 11:59:56;;;;;;;25.53;16.23;;;19.00;99.90;;;;;;5045572;28;20520;-74
2021/04/01 12:02:26;;;;;;;26.90;17.37;;;19.20;99.90;;;;;;5036138;28;20424;-72
2021/04/01 12:04:56;;;;;;;31.97;15.03;;;19.30;99.90;;;;;;5033384;28;20380;-71
2021/04/01 12:07:24;;;;;;;25.13;15.30;;;19.50;99.90;;;;;;5033072;28;20429;-71
2021/04/01 12:09:52;;;;;;;28.57;15.20;;;19.80;99.90;;;;;;5015191;28;20447;-71
2021/04/01 12:12:29;;;;;;;29.20;15.30;;;19.90;99.90;;;;;;5033644;28;20443;-71
2021/04/01 12:14:57;;;;;;;25.40;15.43;;;20.00;99.90;;;;;;5033334;28;20423;-74
2021/04/01 12:17:37;;;;;;;35.80;17.23;;;20.00;99.90;;;;;;5045484;28;20430;-72
2021/04/01 12:20:11;;;;;;;31.43;17.23;;;19.80;99.90;;;;;;5052982;28;20856;-72
2021/04/01 12:22:41;;;;;;;35.67;16.07;;;19.70;99.90;;;;;;5052398;28;20429;-72
2021/04/01 12:25:13;;;;;;;37.33;15.80;;;19.50;99.90;;;;;;5047087;28;20742;-73
2021/04/01 12:27:48;;;;;;;29.33;18.70;;;19.10;99.90;;;;;;5032558;28;20589;-73
2021/04/01 12:30:25;;;;;;;34.53;15.73;;;18.80;99.90;;;;;;5052022;28;20415;-71
2021/04/01 12:32:53;;;;;;;34.43;15.40;;;18.60;99.90;;;;;;5048891;28;20402;-71
2021/04/01 12:35:21;;;;;;;24.83;14.87;;;18.60;99.90;;;;;;5052496;28;20452;-72
2021/04/01 12:38:00;;;;;;;28.77;14.53;;;18.60;99.90;;;;;;5052809;28;20421;-73
2021/04/01 12:40:28;;;;;;;28.30;18.27;;;18.60;99.90;;;;;;5051879;28;20427;-75
2021/04/01 12:43:03;;;;;;;28.30;17.53;;;18.50;99.90;;;;;;5037355;28;20992;-72
2021/04/01 12:45:33;;;;;;;27.37;15.60;;;18.30;99.90;;;;;;5040193;28;20403;-73
2021/04/01 12:48:15;;;;;;;26.43;16.17;;;18.30;99.90;;;;;;5031906;28;20806;-71
2021/04/01 12:50:46;;;;;;;23.23;14.73;;;18.20;99.90;;;;;;5037317;28;20414;-74
2021/04/01 12:53:17;;;;;;;26.70;18.10;;;18.10;99.90;;;;;;5042669;28;20435;-72
2021/04/01 12:55:47;;;;;;;31.10;17.70;;;18.00;99.90;;;;;;5028172;28;20406;-71
2021/04/01 12:58:27;;;;;;;32.53;18.27;;;18.10;99.90;;;;;;5051576;28;21017;-71
2021/04/01 13:00:56;;;;;;;26.90;17.17;;;17.70;99.90;;;;;;5031856;28;20511;-72
2021/04/01 13:03:25;;;;;;;31.70;19.47;;;17.50;99.90;;;;;;5040465;28;20421;-72
2021/04/01 13:05:57;;;;;;;31.17;18.30;;;17.30;99.90;;;;;;5031999;28;20420;-69
2021/04/01 13:11:17;;;;;;;33.77;17.07;;;17.20;99.90;;;;;;5032012;28;20402;-72
2021/04/01 13:13:45;;;;;;;27.60;16.10;;;17.10;99.90;;;;;;5031665;28;20449;-71
2021/04/01 13:16:12;;;;;;;34.17;19.70;;;17.10;99.90;;;;;;5015424;28;20459;-74
2021/04/01 13:18:40;;;;;;;33.97;18.27;;;17.00;99.90;;;;;;5031679;28;20489;-72
2021/04/01 13:24:03;;;;;;;38.90;20.97;;;16.90;99.90;;;;;;5026124;28;20543;-70
2021/04/01 13:26:32;;;;;;;41.60;20.77;;;16.90;99.90;;;;;;5031387;28;20475;-71
2021/04/01 13:29:00;;;;;;;39.70;18.73;;;16.80;99.90;;;;;;5031269;28;20424;-71
2021/04/01 13:31:36;;;;;;;30.87;17.50;;;16.50;99.90;;;;;;5031224;28;20757;-71
2021/04/01 13:34:08;;;;;;;32.43;21.73;;;16.50;99.90;;;;;;5034102;28;20445;-72
2021/04/01 13:36:39;;;;;;;31.63;20.97;;;16.50;99.90;;;;;;5051100;28;20440;-73
2021/04/01 13:39:08;;;;;;;36.97;20.20;;;16.70;99.90;;;;;;5051715;28;20905;-72
2021/04/01 13:41:59;;;;;;;36.70;20.90;;;16.90;99.90;;;;;;5051670;28;20383;-73
2021/04/01 13:44:31;;;;;;;35.93;21.27;;;16.90;99.90;;;;;;5050994;28;20473;-72
2021/04/01 13:46:59;;;;;;;36.43;23.27;;;17.00;99.90;;;;;;5051256;28;20439;-73
2021/04/01 13:49:28;;;;;;;28.13;18.20;;;17.20;99.90;;;;;;5050476;28;20803;-73
2021/04/01 13:51:59;;;;;;;31.30;19.23;;;17.10;99.90;;;;;;5050020;28;20409;-73